Date,TemperatureHighF,TemperatureAvgF,TemperatureLowF,DewpointHighF,DewpointAvgF,DewpointLowF,HumidityHigh,HumidityAvg,HumidityLow,PressureMaxIn,PressureMinIn,WindSpeedMaxMPH,WindSpeedAvgMPH,GustSpeedMaxMPH,PrecipitationSumIn
2013-1-1,40.2,26.0,14.3,24.4,15.9,10.9,91,68,35,30.36,30.24,4,1,8,0.01
2013-1-2,47.0,29.5,16.1,14.9,12.0,9.2,77,52,24,30.32,30.16,5,1,11,0.00
2013-1-3,44.7,30.3,22.4,12.1,7.4,4.2,54,39,20,30.34,30.19,7,2,13,0.00
2013-1-4,48.2,29.2,16.3,10.7,7.6,2.2,69,44,15,30.40,30.29,4,1,7,0.00
2013-1-5,55.7,35.1,20.7,14.5,7.2,-4.1,53,34,11,30.42,30.27,5,1,9,0.00
2013-1-6,54.6,39.2,31.1,17.5,10.7,3.7,53,32,17,30.27,29.89,15,3,22,0.00
2013-1-7,51.7,36.4,24.9,23.8,16.7,11.4,69,46,26,30.02,29.86,9,2,14,0.00
2013-1-8,58.2,39.3,22.6,22.1,14.5,7.7,60,40,18,30.20,30.01,6,1,9,0.00
2013-1-9,63.2,42.3,28.9,25.2,19.1,11.9,70,44,15,30.24,30.01,9,2,14,0.00
2013-1-10,48.7,40.9,27.5,28.9,19.6,11.4,75,44,28,30.01,29.61,22,12,33,0.00
2013-1-11,33.9,24.9,18.5,18.4,11.1,1.8,75,58,26,30.01,29.70,15,7,19,0.00
2013-1-12,33.7,25.7,14.8,14.0,4.1,-2.4,75,41,22,30.18,30.08,12,4,16,0.00
2013-1-13,34.7,19.4,8.4,5.5,1.5,-0.9,69,48,23,30.21,30.10,8,2,14,0.00
2013-1-14,30.9,17.7,5.3,8.2,2.2,-2.4,80,54,30,30.37,30.14,11,3,17,0.00
2013-1-15,40.7,25.9,10.1,7.0,1.8,-3.6,54,37,20,30.55,30.44,8,2,15,0.00
2013-1-16,52.5,33.3,18.6,18.7,13.1,6.5,64,46,25,30.55,30.35,5,1,8,0.00
2013-1-17,57.5,38.1,23.9,20.9,16.8,13.3,67,45,22,30.39,30.25,5,1,12,0.00
2013-1-18,58.5,38.0,25.3,21.7,18.0,15.5,68,48,21,30.33,30.20,3,1,7,0.00
2013-1-19,59.4,39.1,26.2,22.5,17.9,14.5,69,46,20,30.35,30.25,4,1,8,0.00
2013-1-20,61.8,40.0,26.2,15.0,7.4,-7.7,56,31,6,30.30,30.15,6,1,9,0.00
2013-1-21,63.8,40.2,24.7,12.9,6.9,-5.5,50,30,6,30.25,30.15,6,1,9,0.00
2013-1-22,67.6,45.3,30.1,21.0,12.5,4.9,49,29,11,30.26,30.17,5,1,9,0.00
2013-1-23,65.8,47.8,34.7,26.3,21.1,14.2,53,37,18,30.23,30.13,10,2,16,0.00
2013-1-24,52.7,48.0,42.9,45.7,36.8,23.4,93,70,34,30.17,30.06,11,2,16,0.11
2013-1-25,59.4,48.3,41.1,49.6,44.0,39.1,95,86,58,30.17,29.94,3,0,5,0.35
2013-1-26,48.1,46.4,44.2,46.7,44.7,42.6,95,94,93,29.95,29.71,14,5,25,0.98
2013-1-27,49.9,43.9,38.5,46.9,41.3,35.6,95,91,84,29.90,29.78,15,8,26,0.34
2013-1-28,39.6,32.6,21.7,37.4,28.2,18.9,93,84,59,29.99,29.75,16,8,30,0.15
2013-1-29,40.0,29.2,19.6,26.8,20.9,16.4,89,72,50,30.29,29.98,17,7,23,0.08
2013-1-30,50.6,36.3,23.8,29.0,24.0,18.3,80,62,39,30.39,30.25,11,3,15,0.00
2013-1-31,58.5,41.8,30.1,31.8,26.6,20.2,87,59,25,30.30,30.15,5,1,9,0.00